CheckWX is a tool to help pilots better visualize weather data.  It is not intended as a substitute for an official pre-flight weather briefing.

02:50:59 UTC

KLIC METAR
Limon Municipal Airport
Limon, Colorado, USA
Current

56 mins ago

KLIC 240155Z AUTO 34013KT 10SM OVC080 02/01 A2999 RMK AO2 PK WND 35026/0102 SLP162 T00220011
Observed
Mar-24 @ 01:55 UTC
Wind
  • 340° at 13 KTS
Visibility
10 SM
Flight Rules
VFR
Cloud Levels
  • Overcast at 8,000' AGL
Temperature
C / 36°F
Dewpoint
C / 34°F
Humidity
93%
Altimeter
29.99" Hg
Pressure
1016.2 hPa
Previous

2 hours ago

KLIC 240055Z AUTO 35017KT 10SM SCT015 OVC090 02/02 A2997 RMK AO2 SLP155 T00170017
Observed
Mar-24 @ 00:55 UTC
Wind
  • 350° at 17 KTS
Visibility
10 SM
Flight Rules
VFR
Cloud Levels
  • Scattered at 1,500' AGL
  • Overcast at 9,000' AGL
Temperature
C / 36°F
Dewpoint
C / 36°F
Humidity
100%
Altimeter
29.97" Hg
Pressure
1015.5 hPa
Previous

3 hours ago

KLIC 232355Z AUTO 35018G24KT 10SM SCT085 03/02 A2996 RMK AO2 PK WND 35029/2258 SLP149 60004 T00280017 10033 20011 53009
Observed
Mar-23 @ 23:55 UTC
Wind
  • 350° at 18 KTS
  • Gusting to 24 KTS
Visibility
10 SM
Flight Rules
VFR
Cloud Levels
  • Scattered at 8,500' AGL
Temperature
C / 37°F
Dewpoint
C / 36°F
Humidity
93%
Altimeter
29.96" Hg
Pressure
1014.9 hPa